sensor_id;sensor_type;location;lat;lon;timestamp;P1;durP1;ratioP1;P2;durP2;ratioP2
7571;SDS011;3827;49.928;8.548;2023-03-14T00:00:49;1.70;;;1.00;;
7571;SDS011;3827;49.928;8.548;2023-03-14T00:03:16;1.38;;;0.98;;
7571;SDS011;3827;49.928;8.548;2023-03-14T00:05:43;2.03;;;1.08;;
7571;SDS011;3827;49.928;8.548;2023-03-14T00:08:10;2.35;;;0.95;;
7571;SDS011;3827;49.928;8.548;2023-03-14T00:10:37;1.70;;;1.08;;
7571;SDS011;3827;49.928;8.548;2023-03-14T00:13:04;1.52;;;1.00;;
7571;SDS011;3827;49.928;8.548;2023-03-14T00:15:32;2.03;;;1.10;;
7571;SDS011;3827;49.928;8.548;2023-03-14T00:18:00;0.90;;;0.77;;
7571;SDS011;3827;49.928;8.548;2023-03-14T00:20:27;1.70;;;0.80;;
7571;SDS011;3827;49.928;8.548;2023-03-14T00:22:54;1.50;;;0.70;;
7571;SDS011;3827;49.928;8.548;2023-03-14T00:25:21;1.17;;;0.90;;
7571;SDS011;3827;49.928;8.548;2023-03-14T00:27:49;2.20;;;0.80;;
7571;SDS011;3827;49.928;8.548;2023-03-14T00:30:16;1.35;;;0.90;;
7571;SDS011;3827;49.928;8.548;2023-03-14T00:32:43;1.48;;;0.75;;
7571;SDS011;3827;49.928;8.548;2023-03-14T00:35:11;1.90;;;0.90;;
7571;SDS011;3827;49.928;8.548;2023-03-14T00:37:38;1.27;;;0.80;;
7571;SDS011;3827;49.928;8.548;2023-03-14T00:40:06;1.27;;;0.95;;
7571;SDS011;3827;49.928;8.548;2023-03-14T00:42:34;1.60;;;0.77;;
7571;SDS011;3827;49.928;8.548;2023-03-14T00:45:01;2.05;;;0.90;;
7571;SDS011;3827;49.928;8.548;2023-03-14T00:47:28;1.80;;;0.90;;
7571;SDS011;3827;49.928;8.548;2023-03-14T00:49:55;1.50;;;0.90;;
7571;SDS011;3827;49.928;8.548;2023-03-14T00:52:23;1.60;;;1.10;;
7571;SDS011;3827;49.928;8.548;2023-03-14T00:54:50;0.90;;;0.70;;
7571;SDS011;3827;49.928;8.548;2023-03-14T00:57:17;2.37;;;0.90;;
7571;SDS011;3827;49.928;8.548;2023-03-14T00:59:44;1.85;;;0.93;;
7571;SDS011;3827;49.928;8.548;2023-03-14T01:02:11;2.65;;;0.98;;
7571;SDS011;3827;49.928;8.548;2023-03-14T01:04:37;2.90;;;1.10;;
7571;SDS011;3827;49.928;8.548;2023-03-14T01:07:04;1.85;;;1.13;;
7571;SDS011;3827;49.928;8.548;2023-03-14T01:09:32;2.57;;;0.90;;
7571;SDS011;3827;49.928;8.548;2023-03-14T01:11:59;2.90;;;1.08;;
7571;SDS011;3827;49.928;8.548;2023-03-14T01:14:26;2.13;;;0.90;;
7571;SDS011;3827;49.928;8.548;2023-03-14T01:16:52;3.45;;;1.20;;
7571;SDS011;3827;49.928;8.548;2023-03-14T01:19:25;2.92;;;1.00;;
7571;SDS011;3827;49.928;8.548;2023-03-14T01:21:52;1.85;;;1.10;;
7571;SDS011;3827;49.928;8.548;2023-03-14T01:24:19;1.60;;;1.10;;
7571;SDS011;3827;49.928;8.548;2023-03-14T01:26:47;2.17;;;1.00;;
7571;SDS011;3827;49.928;8.548;2023-03-14T01:29:14;3.10;;;1.25;;
7571;SDS011;3827;49.928;8.548;2023-03-14T01:31:41;2.95;;;1.20;;
7571;SDS011;3827;49.928;8.548;2023-03-14T01:34:08;3.00;;;1.23;;
7571;SDS011;3827;49.928;8.548;2023-03-14T01:36:34;2.05;;;1.10;;
7571;SDS011;3827;49.928;8.548;2023-03-14T01:39:02;2.58;;;1.05;;
7571;SDS011;3827;49.928;8.548;2023-03-14T01:41:31;3.22;;;1.35;;
7571;SDS011;3827;49.928;8.548;2023-03-14T01:43:59;2.53;;;1.13;;
7571;SDS011;3827;49.928;8.548;2023-03-14T01:46:28;2.40;;;1.03;;
7571;SDS011;3827;49.928;8.548;2023-03-14T01:49:06;2.42;;;1.10;;
7571;SDS011;3827;49.928;8.548;2023-03-14T01:51:39;1.63;;;1.15;;
7571;SDS011;3827;49.928;8.548;2023-03-14T01:54:10;2.72;;;1.30;;
7571;SDS011;3827;49.928;8.548;2023-03-14T01:56:43;2.67;;;1.38;;
7571;SDS011;3827;49.928;8.548;2023-03-14T01:59:13;1.92;;;1.30;;
7571;SDS011;3827;49.928;8.548;2023-03-14T02:01:41;2.90;;;1.43;;
7571;SDS011;3827;49.928;8.548;2023-03-14T02:04:11;2.70;;;1.10;;
7571;SDS011;3827;49.928;8.548;2023-03-14T02:06:41;2.05;;;1.00;;
7571;SDS011;3827;49.928;8.548;2023-03-14T02:09:12;3.00;;;1.20;;
7571;SDS011;3827;49.928;8.548;2023-03-14T02:11:39;2.83;;;1.25;;
7571;SDS011;3827;49.928;8.548;2023-03-14T02:14:06;3.35;;;1.15;;
7571;SDS011;3827;49.928;8.548;2023-03-14T02:16:37;2.13;;;0.95;;
7571;SDS011;3827;49.928;8.548;2023-03-14T02:19:04;2.30;;;1.38;;
7571;SDS011;3827;49.928;8.548;2023-03-14T02:21:36;3.10;;;1.20;;
7571;SDS011;3827;49.928;8.548;2023-03-14T02:24:12;3.90;;;1.20;;
7571;SDS011;3827;49.928;8.548;2023-03-14T02:26:44;3.20;;;1.40;;
7571;SDS011;3827;49.928;8.548;2023-03-14T02:29:28;2.97;;;1.30;;
7571;SDS011;3827;49.928;8.548;2023-03-14T02:31:56;2.03;;;1.10;;
7571;SDS011;3827;49.928;8.548;2023-03-14T02:34:23;2.08;;;1.02;;
7571;SDS011;3827;49.928;8.548;2023-03-14T02:36:52;2.30;;;1.30;;
7571;SDS011;3827;49.928;8.548;2023-03-14T02:39:19;4.28;;;1.45;;
7571;SDS011;3827;49.928;8.548;2023-03-14T02:41:50;1.38;;;0.98;;
7571;SDS011;3827;49.928;8.548;2023-03-14T02:44:17;2.40;;;1.30;;
7571;SDS011;3827;49.928;8.548;2023-03-14T02:46:45;2.63;;;1.20;;
7571;SDS011;3827;49.928;8.548;2023-03-14T02:49:13;2.22;;;1.10;;
7571;SDS011;3827;49.928;8.548;2023-03-14T02:51:40;3.08;;;1.13;;
7571;SDS011;3827;49.928;8.548;2023-03-14T02:54:09;2.38;;;1.10;;
7571;SDS011;3827;49.928;8.548;2023-03-14T02:56:36;3.33;;;1.27;;
7571;SDS011;3827;49.928;8.548;2023-03-14T02:59:03;2.97;;;1.20;;
7571;SDS011;3827;49.928;8.548;2023-03-14T03:01:30;3.35;;;1.20;;
7571;SDS011;3827;49.928;8.548;2023-03-14T03:03:58;2.07;;;1.10;;
7571;SDS011;3827;49.928;8.548;2023-03-14T03:06:25;2.33;;;1.20;;
7571;SDS011;3827;49.928;8.548;2023-03-14T03:08:51;2.55;;;1.20;;
7571;SDS011;3827;49.928;8.548;2023-03-14T03:11:18;2.83;;;1.20;;
7571;SDS011;3827;49.928;8.548;2023-03-14T03:13:45;2.38;;;1.30;;
7571;SDS011;3827;49.928;8.548;2023-03-14T03:16:12;2.37;;;1.20;;
7571;SDS011;3827;49.928;8.548;2023-03-14T03:18:40;3.85;;;1.27;;
7571;SDS011;3827;49.928;8.548;2023-03-14T03:21:08;2.53;;;1.10;;
7571;SDS011;3827;49.928;8.548;2023-03-14T03:23:35;3.30;;;1.20;;
7571;SDS011;3827;49.928;8.548;2023-03-14T03:26:02;1.93;;;1.30;;
7571;SDS011;3827;49.928;8.548;2023-03-14T03:28:29;2.30;;;1.08;;
7571;SDS011;3827;49.928;8.548;2023-03-14T03:30:56;1.52;;;0.85;;
7571;SDS011;3827;49.928;8.548;2023-03-14T03:33:23;3.00;;;1.10;;
7571;SDS011;3827;49.928;8.548;2023-03-14T03:35:50;3.35;;;1.10;;
7571;SDS011;3827;49.928;8.548;2023-03-14T03:38:19;3.15;;;1.00;;
7571;SDS011;3827;49.928;8.548;2023-03-14T03:40:46;2.85;;;1.00;;
7571;SDS011;3827;49.928;8.548;2023-03-14T03:43:12;1.83;;;1.10;;
7571;SDS011;3827;49.928;8.548;2023-03-14T03:45:39;2.50;;;1.52;;
7571;SDS011;3827;49.928;8.548;2023-03-14T03:48:06;2.97;;;1.20;;
7571;SDS011;3827;49.928;8.548;2023-03-14T03:50:33;2.07;;;1.27;;
7571;SDS011;3827;49.928;8.548;2023-03-14T03:53:00;2.78;;;1.17;;
7571;SDS011;3827;49.928;8.548;2023-03-14T03:55:28;2.47;;;1.20;;
7571;SDS011;3827;49.928;8.548;2023-03-14T03:57:54;2.75;;;1.13;;
7571;SDS011;3827;49.928;8.548;2023-03-14T04:00:21;2.33;;;1.20;;
7571;SDS011;3827;49.928;8.548;2023-03-14T04:02:48;4.05;;;1.20;;
7571;SDS011;3827;49.928;8.548;2023-03-14T04:05:15;3.33;;;1.23;;
7571;SDS011;3827;49.928;8.548;2023-03-14T04:07:42;3.03;;;1.13;;
7571;SDS011;3827;49.928;8.548;2023-03-14T04:10:09;2.40;;;1.30;;
7571;SDS011;3827;49.928;8.548;2023-03-14T04:12:37;2.65;;;1.13;;
7571;SDS011;3827;49.928;8.548;2023-03-14T04:15:05;2.93;;;1.07;;
7571;SDS011;3827;49.928;8.548;2023-03-14T04:17:32;3.47;;;1.27;;
7571;SDS011;3827;49.928;8.548;2023-03-14T04:19:59;3.55;;;1.20;;
7571;SDS011;3827;49.928;8.548;2023-03-14T04:22:26;2.78;;;1.40;;
7571;SDS011;3827;49.928;8.548;2023-03-14T04:24:53;3.63;;;1.40;;
7571;SDS011;3827;49.928;8.548;2023-03-14T04:27:19;3.70;;;1.38;;
7571;SDS011;3827;49.928;8.548;2023-03-14T04:29:48;4.68;;;1.80;;
7571;SDS011;3827;49.928;8.548;2023-03-14T04:32:14;3.75;;;1.45;;
7571;SDS011;3827;49.928;8.548;2023-03-14T04:34:41;4.20;;;1.23;;
7571;SDS011;3827;49.928;8.548;2023-03-14T04:37:08;3.35;;;1.10;;
7571;SDS011;3827;49.928;8.548;2023-03-14T04:39:34;4.80;;;1.10;;
7571;SDS011;3827;49.928;8.548;2023-03-14T04:42:01;2.60;;;1.00;;
7571;SDS011;3827;49.928;8.548;2023-03-14T04:44:28;3.05;;;1.10;;
7571;SDS011;3827;49.928;8.548;2023-03-14T04:46:56;3.28;;;1.40;;
7571;SDS011;3827;49.928;8.548;2023-03-14T04:49:23;3.78;;;1.17;;
7571;SDS011;3827;49.928;8.548;2023-03-14T04:51:50;3.10;;;1.00;;
7571;SDS011;3827;49.928;8.548;2023-03-14T04:54:17;2.40;;;1.00;;
7571;SDS011;3827;49.928;8.548;2023-03-14T04:56:44;3.90;;;1.27;;
7571;SDS011;3827;49.928;8.548;2023-03-14T04:59:11;3.70;;;1.25;;
7571;SDS011;3827;49.928;8.548;2023-03-14T05:01:38;2.67;;;1.10;;
7571;SDS011;3827;49.928;8.548;2023-03-14T05:04:07;2.80;;;1.20;;
7571;SDS011;3827;49.928;8.548;2023-03-14T05:06:34;3.67;;;1.30;;
7571;SDS011;3827;49.928;8.548;2023-03-14T05:09:00;2.45;;;0.98;;
7571;SDS011;3827;49.928;8.548;2023-03-14T05:11:29;4.20;;;1.27;;
7571;SDS011;3827;49.928;8.548;2023-03-14T05:13:57;3.80;;;1.17;;
7571;SDS011;3827;49.928;8.548;2023-03-14T05:16:24;3.45;;;1.13;;
7571;SDS011;3827;49.928;8.548;2023-03-14T05:18:51;2.78;;;1.02;;
7571;SDS011;3827;49.928;8.548;2023-03-14T05:21:19;2.28;;;0.95;;
7571;SDS011;3827;49.928;8.548;2023-03-14T05:23:46;2.95;;;0.90;;
7571;SDS011;3827;49.928;8.548;2023-03-14T05:26:12;2.42;;;1.38;;
7571;SDS011;3827;49.928;8.548;2023-03-14T05:28:41;4.28;;;1.52;;
7571;SDS011;3827;49.928;8.548;2023-03-14T05:31:09;2.60;;;1.20;;
7571;SDS011;3827;49.928;8.548;2023-03-14T05:33:35;2.65;;;1.20;;
7571;SDS011;3827;49.928;8.548;2023-03-14T05:36:03;2.63;;;1.10;;
7571;SDS011;3827;49.928;8.548;2023-03-14T05:38:31;2.75;;;0.90;;
7571;SDS011;3827;49.928;8.548;2023-03-14T05:40:58;3.38;;;1.00;;
7571;SDS011;3827;49.928;8.548;2023-03-14T05:43:25;3.22;;;1.23;;
7571;SDS011;3827;49.928;8.548;2023-03-14T05:45:51;3.30;;;1.30;;
7571;SDS011;3827;49.928;8.548;2023-03-14T05:48:18;2.40;;;1.00;;
7571;SDS011;3827;49.928;8.548;2023-03-14T05:50:46;2.58;;;0.90;;
7571;SDS011;3827;49.928;8.548;2023-03-14T05:53:13;2.75;;;1.08;;
7571;SDS011;3827;49.928;8.548;2023-03-14T05:55:41;4.30;;;1.20;;
7571;SDS011;3827;49.928;8.548;2023-03-14T05:58:08;3.05;;;1.00;;
7571;SDS011;3827;49.928;8.548;2023-03-14T06:00:35;2.35;;;1.00;;
7571;SDS011;3827;49.928;8.548;2023-03-14T06:03:02;2.65;;;1.17;;
7571;SDS011;3827;49.928;8.548;2023-03-14T06:05:29;2.58;;;1.20;;
7571;SDS011;3827;49.928;8.548;2023-03-14T06:07:55;3.90;;;2.85;;
7571;SDS011;3827;49.928;8.548;2023-03-14T06:10:22;12.23;;;10.98;;
7571;SDS011;3827;49.928;8.548;2023-03-14T06:12:50;3.95;;;3.38;;
7571;SDS011;3827;49.928;8.548;2023-03-14T06:15:17;2.03;;;1.52;;
7571;SDS011;3827;49.928;8.548;2023-03-14T06:17:44;3.27;;;1.60;;
7571;SDS011;3827;49.928;8.548;2023-03-14T06:20:11;3.88;;;2.28;;
7571;SDS011;3827;49.928;8.548;2023-03-14T06:22:38;1.40;;;1.05;;
7571;SDS011;3827;49.928;8.548;2023-03-14T06:25:05;2.40;;;0.98;;
7571;SDS011;3827;49.928;8.548;2023-03-14T06:27:32;2.28;;;1.10;;
7571;SDS011;3827;49.928;8.548;2023-03-14T06:30:01;2.03;;;1.20;;
7571;SDS011;3827;49.928;8.548;2023-03-14T06:32:28;1.50;;;0.77;;
7571;SDS011;3827;49.928;8.548;2023-03-14T06:34:55;3.00;;;2.05;;
7571;SDS011;3827;49.928;8.548;2023-03-14T06:37:26;3.25;;;1.48;;
7571;SDS011;3827;49.928;8.548;2023-03-14T06:39:52;3.40;;;1.08;;
7571;SDS011;3827;49.928;8.548;2023-03-14T06:42:19;2.20;;;1.00;;
7571;SDS011;3827;49.928;8.548;2023-03-14T06:44:46;2.93;;;1.00;;
7571;SDS011;3827;49.928;8.548;2023-03-14T06:47:14;1.88;;;1.10;;
7571;SDS011;3827;49.928;8.548;2023-03-14T06:49:41;3.15;;;1.08;;
7571;SDS011;3827;49.928;8.548;2023-03-14T06:52:08;3.70;;;0.93;;
7571;SDS011;3827;49.928;8.548;2023-03-14T06:54:35;1.88;;;1.10;;
7571;SDS011;3827;49.928;8.548;2023-03-14T06:57:02;1.95;;;0.93;;
7571;SDS011;3827;49.928;8.548;2023-03-14T06:59:28;1.70;;;1.30;;
7571;SDS011;3827;49.928;8.548;2023-03-14T07:01:55;1.75;;;1.10;;
7571;SDS011;3827;49.928;8.548;2023-03-14T07:04:26;2.47;;;0.80;;
7571;SDS011;3827;49.928;8.548;2023-03-14T07:06:54;2.17;;;0.93;;
7571;SDS011;3827;49.928;8.548;2023-03-14T07:09:21;2.07;;;1.00;;
7571;SDS011;3827;49.928;8.548;2023-03-14T07:11:47;2.67;;;0.93;;
7571;SDS011;3827;49.928;8.548;2023-03-14T07:14:14;1.92;;;0.98;;
7571;SDS011;3827;49.928;8.548;2023-03-14T07:16:41;1.55;;;0.80;;
7571;SDS011;3827;49.928;8.548;2023-03-14T07:19:08;1.92;;;0.82;;
7571;SDS011;3827;49.928;8.548;2023-03-14T07:21:36;2.20;;;0.97;;
7571;SDS011;3827;49.928;8.548;2023-03-14T07:24:03;3.88;;;1.10;;
7571;SDS011;3827;49.928;8.548;2023-03-14T07:26:29;2.33;;;0.90;;
7571;SDS011;3827;49.928;8.548;2023-03-14T07:28:56;1.48;;;0.70;;
7571;SDS011;3827;49.928;8.548;2023-03-14T07:31:25;1.98;;;0.75;;
7571;SDS011;3827;49.928;8.548;2023-03-14T07:33:52;3.08;;;0.95;;
7571;SDS011;3827;49.928;8.548;2023-03-14T07:36:19;2.75;;;1.40;;
7571;SDS011;3827;49.928;8.548;2023-03-14T07:38:47;3.03;;;1.25;;
7571;SDS011;3827;49.928;8.548;2023-03-14T07:41:14;2.08;;;0.93;;
7571;SDS011;3827;49.928;8.548;2023-03-14T07:43:40;2.58;;;1.60;;
7571;SDS011;3827;49.928;8.548;2023-03-14T07:46:07;2.88;;;2.25;;
7571;SDS011;3827;49.928;8.548;2023-03-14T07:48:34;3.05;;;2.00;;
7571;SDS011;3827;49.928;8.548;2023-03-14T07:51:01;2.20;;;1.40;;
7571;SDS011;3827;49.928;8.548;2023-03-14T07:53:28;1.90;;;1.38;;
7571;SDS011;3827;49.928;8.548;2023-03-14T07:55:56;2.97;;;1.33;;
7571;SDS011;3827;49.928;8.548;2023-03-14T07:58:23;2.97;;;1.00;;
7571;SDS011;3827;49.928;8.548;2023-03-14T08:00:50;2.25;;;0.90;;
7571;SDS011;3827;49.928;8.548;2023-03-14T08:03:18;2.75;;;0.98;;
7571;SDS011;3827;49.928;8.548;2023-03-14T08:05:46;2.00;;;0.93;;
7571;SDS011;3827;49.928;8.548;2023-03-14T08:08:14;2.47;;;1.00;;
7571;SDS011;3827;49.928;8.548;2023-03-14T08:10:41;2.43;;;1.00;;
7571;SDS011;3827;49.928;8.548;2023-03-14T08:13:09;1.00;;;0.90;;
7571;SDS011;3827;49.928;8.548;2023-03-14T08:15:36;2.15;;;1.00;;
7571;SDS011;3827;49.928;8.548;2023-03-14T08:18:04;2.17;;;1.00;;
7571;SDS011;3827;49.928;8.548;2023-03-14T08:20:31;3.13;;;1.30;;
7571;SDS011;3827;49.928;8.548;2023-03-14T08:22:58;1.90;;;0.70;;
7571;SDS011;3827;49.928;8.548;2023-03-14T08:25:26;1.50;;;0.60;;
7571;SDS011;3827;49.928;8.548;2023-03-14T08:27:54;2.00;;;0.80;;
7571;SDS011;3827;49.928;8.548;2023-03-14T08:30:22;0.98;;;0.68;;
7571;SDS011;3827;49.928;8.548;2023-03-14T08:32:49;1.83;;;0.68;;
7571;SDS011;3827;49.928;8.548;2023-03-14T08:35:16;1.48;;;0.70;;
7571;SDS011;3827;49.928;8.548;2023-03-14T08:37:43;2.23;;;0.60;;
7571;SDS011;3827;49.928;8.548;2023-03-14T08:40:10;1.17;;;0.65;;
7571;SDS011;3827;49.928;8.548;2023-03-14T08:42:38;1.13;;;0.60;;
7571;SDS011;3827;49.928;8.548;2023-03-14T08:45:06;1.42;;;0.60;;
7571;SDS011;3827;49.928;8.548;2023-03-14T08:47:36;1.27;;;0.53;;
7571;SDS011;3827;49.928;8.548;2023-03-14T08:50:03;1.20;;;0.88;;
7571;SDS011;3827;49.928;8.548;2023-03-14T08:52:31;1.00;;;0.60;;
7571;SDS011;3827;49.928;8.548;2023-03-14T08:54:58;1.10;;;0.60;;
7571;SDS011;3827;49.928;8.548;2023-03-14T08:57:25;0.77;;;0.50;;
7571;SDS011;3827;49.928;8.548;2023-03-14T08:59:53;1.60;;;0.65;;
7571;SDS011;3827;49.928;8.548;2023-03-14T09:02:21;0.85;;;0.60;;
7571;SDS011;3827;49.928;8.548;2023-03-14T09:04:50;0.50;;;0.50;;
7571;SDS011;3827;49.928;8.548;2023-03-14T09:07:18;1.17;;;0.50;;
7571;SDS011;3827;49.928;8.548;2023-03-14T09:09:45;0.90;;;0.60;;
7571;SDS011;3827;49.928;8.548;2023-03-14T09:12:12;0.88;;;0.57;;
7571;SDS011;3827;49.928;8.548;2023-03-14T09:14:39;1.60;;;0.50;;
7571;SDS011;3827;49.928;8.548;2023-03-14T09:17:06;1.25;;;0.80;;
7571;SDS011;3827;49.928;8.548;2023-03-14T09:19:33;1.05;;;0.63;;
7571;SDS011;3827;49.928;8.548;2023-03-14T09:22:01;1.02;;;0.50;;
7571;SDS011;3827;49.928;8.548;2023-03-14T09:24:28;1.05;;;0.70;;
7571;SDS011;3827;49.928;8.548;2023-03-14T09:26:55;1.55;;;1.00;;
7571;SDS011;3827;49.928;8.548;2023-03-14T09:29:22;0.55;;;0.40;;
7571;SDS011;3827;49.928;8.548;2023-03-14T09:31:50;0.75;;;0.70;;
7571;SDS011;3827;49.928;8.548;2023-03-14T09:34:17;1.92;;;1.80;;
7571;SDS011;3827;49.928;8.548;2023-03-14T09:36:44;1.00;;;0.90;;
7571;SDS011;3827;49.928;8.548;2023-03-14T09:39:12;0.55;;;0.30;;
7571;SDS011;3827;49.928;8.548;2023-03-14T09:41:39;1.17;;;0.90;;
7571;SDS011;3827;49.928;8.548;2023-03-14T09:44:09;1.10;;;0.45;;
7571;SDS011;3827;49.928;8.548;2023-03-14T09:46:39;0.55;;;0.50;;
7571;SDS011;3827;49.928;8.548;2023-03-14T09:49:09;0.52;;;0.52;;
7571;SDS011;3827;49.928;8.548;2023-03-14T09:51:41;0.77;;;0.55;;
7571;SDS011;3827;49.928;8.548;2023-03-14T09:54:16;0.60;;;0.43;;
7571;SDS011;3827;49.928;8.548;2023-03-14T09:56:51;0.77;;;0.40;;
7571;SDS011;3827;49.928;8.548;2023-03-14T09:59:18;0.30;;;0.30;;
7571;SDS011;3827;49.928;8.548;2023-03-14T10:01:45;0.45;;;0.35;;
7571;SDS011;3827;49.928;8.548;2023-03-14T10:04:12;0.47;;;0.40;;
7571;SDS011;3827;49.928;8.548;2023-03-14T10:06:43;0.70;;;0.33;;
7571;SDS011;3827;49.928;8.548;2023-03-14T10:09:10;0.43;;;0.30;;
7571;SDS011;3827;49.928;8.548;2023-03-14T10:11:50;1.15;;;0.47;;
7571;SDS011;3827;49.928;8.548;2023-03-14T10:14:28;0.70;;;0.50;;
7571;SDS011;3827;49.928;8.548;2023-03-14T10:16:58;1.30;;;0.60;;
7571;SDS011;3827;49.928;8.548;2023-03-14T10:19:32;0.80;;;0.70;;
7571;SDS011;3827;49.928;8.548;2023-03-14T10:22:01;1.70;;;0.50;;
7571;SDS011;3827;49.928;8.548;2023-03-14T10:24:30;0.70;;;0.70;;
7571;SDS011;3827;49.928;8.548;2023-03-14T10:26:59;0.80;;;0.50;;
7571;SDS011;3827;49.928;8.548;2023-03-14T10:29:27;0.40;;;0.40;;
7571;SDS011;3827;49.928;8.548;2023-03-14T10:31:57;0.60;;;0.40;;
7571;SDS011;3827;49.928;8.548;2023-03-14T10:34:26;0.73;;;0.52;;
7571;SDS011;3827;49.928;8.548;2023-03-14T10:36:55;0.43;;;0.43;;
7571;SDS011;3827;49.928;8.548;2023-03-14T10:39:35;0.90;;;0.90;;
7571;SDS011;3827;49.928;8.548;2023-03-14T10:42:12;2.05;;;1.65;;
7571;SDS011;3827;49.928;8.548;2023-03-14T10:44:44;3.13;;;1.38;;
7571;SDS011;3827;49.928;8.548;2023-03-14T10:47:18;2.80;;;2.60;;
7571;SDS011;3827;49.928;8.548;2023-03-14T10:49:48;0.70;;;0.70;;
7571;SDS011;3827;49.928;8.548;2023-03-14T10:52:18;0.90;;;0.50;;
7571;SDS011;3827;49.928;8.548;2023-03-14T10:54:49;0.50;;;0.47;;
7571;SDS011;3827;49.928;8.548;2023-03-14T10:57:21;0.45;;;0.40;;
7571;SDS011;3827;49.928;8.548;2023-03-14T10:59:48;0.40;;;0.40;;
7571;SDS011;3827;49.928;8.548;2023-03-14T11:02:20;0.40;;;0.30;;
7571;SDS011;3827;49.928;8.548;2023-03-14T11:05:04;0.85;;;0.45;;
7571;SDS011;3827;49.928;8.548;2023-03-14T11:07:47;0.80;;;0.30;;
7571;SDS011;3827;49.928;8.548;2023-03-14T11:10:20;0.70;;;0.40;;
7571;SDS011;3827;49.928;8.548;2023-03-14T11:12:58;0.60;;;0.43;;
7571;SDS011;3827;49.928;8.548;2023-03-14T11:15:34;0.55;;;0.43;;
7571;SDS011;3827;49.928;8.548;2023-03-14T11:18:09;0.57;;;0.57;;
7571;SDS011;3827;49.928;8.548;2023-03-14T11:20:46;0.30;;;0.30;;
7571;SDS011;3827;49.928;8.548;2023-03-14T11:23:20;0.40;;;0.30;;
7571;SDS011;3827;49.928;8.548;2023-03-14T11:25:51;0.40;;;0.30;;
7571;SDS011;3827;49.928;8.548;2023-03-14T11:28:26;0.60;;;0.40;;
7571;SDS011;3827;49.928;8.548;2023-03-14T11:31:00;1.15;;;0.40;;
7571;SDS011;3827;49.928;8.548;2023-03-14T11:33:35;0.30;;;0.30;;
7571;SDS011;3827;49.928;8.548;2023-03-14T11:36:04;0.32;;;0.32;;
7571;SDS011;3827;49.928;8.548;2023-03-14T11:38:34;0.30;;;0.30;;
7571;SDS011;3827;49.928;8.548;2023-03-14T11:41:11;0.82;;;0.40;;
7571;SDS011;3827;49.928;8.548;2023-03-14T11:43:41;0.70;;;0.40;;
7571;SDS011;3827;49.928;8.548;2023-03-14T11:46:14;0.40;;;0.40;;
7571;SDS011;3827;49.928;8.548;2023-03-14T11:48:46;0.35;;;0.20;;
7571;SDS011;3827;49.928;8.548;2023-03-14T11:51:25;0.30;;;0.30;;
7571;SDS011;3827;49.928;8.548;2023-03-14T11:54:01;0.40;;;0.40;;
7571;SDS011;3827;49.928;8.548;2023-03-14T11:56:39;0.50;;;0.50;;
7571;SDS011;3827;49.928;8.548;2023-03-14T11:59:12;0.30;;;0.30;;
7571;SDS011;3827;49.928;8.548;2023-03-14T12:01:51;0.77;;;0.50;;
7571;SDS011;3827;49.928;8.548;2023-03-14T12:04:22;1.00;;;0.55;;
7571;SDS011;3827;49.928;8.548;2023-03-14T12:07:09;0.90;;;0.90;;
7571;SDS011;3827;49.928;8.548;2023-03-14T12:09:41;2.03;;;1.92;;
7571;SDS011;3827;49.928;8.548;2023-03-14T12:12:11;0.90;;;0.80;;
7571;SDS011;3827;49.928;8.548;2023-03-14T12:14:44;0.63;;;0.50;;
7571;SDS011;3827;49.928;8.548;2023-03-14T12:17:18;0.40;;;0.40;;
7571;SDS011;3827;49.928;8.548;2023-03-14T12:19:47;0.73;;;0.20;;
7571;SDS011;3827;49.928;8.548;2023-03-14T12:22:28;0.50;;;0.20;;
7571;SDS011;3827;49.928;8.548;2023-03-14T12:25:00;0.20;;;0.20;;
7571;SDS011;3827;49.928;8.548;2023-03-14T12:27:42;0.10;;;0.10;;
7571;SDS011;3827;49.928;8.548;2023-03-14T12:30:25;0.30;;;0.20;;
7571;SDS011;3827;49.928;8.548;2023-03-14T12:36:04;0.10;;;0.10;;
7571;SDS011;3827;49.928;8.548;2023-03-14T12:38:46;0.10;;;0.10;;
7571;SDS011;3827;49.928;8.548;2023-03-14T12:41:23;0.10;;;0.10;;
7571;SDS011;3827;49.928;8.548;2023-03-14T12:43:56;0.10;;;0.10;;
7571;SDS011;3827;49.928;8.548;2023-03-14T12:46:43;0.20;;;0.20;;
7571;SDS011;3827;49.928;8.548;2023-03-14T12:49:10;0.10;;;0.10;;
7571;SDS011;3827;49.928;8.548;2023-03-14T12:51:37;0.65;;;0.65;;
7571;SDS011;3827;49.928;8.548;2023-03-14T12:54:12;0.30;;;0.30;;
7571;SDS011;3827;49.928;8.548;2023-03-14T12:56:57;0.80;;;0.40;;
7571;SDS011;3827;49.928;8.548;2023-03-14T12:59:33;0.60;;;0.60;;
7571;SDS011;3827;49.928;8.548;2023-03-14T13:02:02;0.90;;;0.50;;
7571;SDS011;3827;49.928;8.548;2023-03-14T13:04:44;3.13;;;2.83;;
7571;SDS011;3827;49.928;8.548;2023-03-14T13:07:15;3.45;;;3.15;;
7571;SDS011;3827;49.928;8.548;2023-03-14T13:09:59;0.20;;;0.20;;
7571;SDS011;3827;49.928;8.548;2023-03-14T13:12:36;2.10;;;2.00;;
7571;SDS011;3827;49.928;8.548;2023-03-14T13:15:19;5.33;;;4.83;;
7571;SDS011;3827;49.928;8.548;2023-03-14T13:17:49;1.20;;;1.20;;
7571;SDS011;3827;49.928;8.548;2023-03-14T13:20:20;0.17;;;0.17;;
7571;SDS011;3827;49.928;8.548;2023-03-14T13:22:53;0.40;;;0.20;;
7571;SDS011;3827;49.928;8.548;2023-03-14T13:25:20;1.50;;;1.40;;
7571;SDS011;3827;49.928;8.548;2023-03-14T13:27:48;1.95;;;1.85;;
7571;SDS011;3827;49.928;8.548;2023-03-14T13:30:16;1.80;;;1.67;;
7571;SDS011;3827;49.928;8.548;2023-03-14T13:32:48;0.52;;;0.52;;
7571;SDS011;3827;49.928;8.548;2023-03-14T13:35:20;0.60;;;0.30;;
7571;SDS011;3827;49.928;8.548;2023-03-14T13:37:52;0.27;;;0.27;;
7571;SDS011;3827;49.928;8.548;2023-03-14T13:40:26;0.60;;;0.28;;
7571;SDS011;3827;49.928;8.548;2023-03-14T13:42:59;0.70;;;0.30;;
7571;SDS011;3827;49.928;8.548;2023-03-14T13:45:30;0.50;;;0.30;;
7571;SDS011;3827;49.928;8.548;2023-03-14T13:47:57;0.30;;;0.20;;
7571;SDS011;3827;49.928;8.548;2023-03-14T13:50:24;0.70;;;0.30;;
7571;SDS011;3827;49.928;8.548;2023-03-14T13:52:54;0.30;;;0.30;;
7571;SDS011;3827;49.928;8.548;2023-03-14T13:55:23;0.88;;;0.40;;
7571;SDS011;3827;49.928;8.548;2023-03-14T13:57:50;0.65;;;0.50;;
7571;SDS011;3827;49.928;8.548;2023-03-14T14:00:20;0.80;;;0.60;;
7571;SDS011;3827;49.928;8.548;2023-03-14T14:02:53;0.90;;;0.60;;
7571;SDS011;3827;49.928;8.548;2023-03-14T14:05:20;0.77;;;0.60;;
7571;SDS011;3827;49.928;8.548;2023-03-14T14:07:48;0.50;;;0.50;;
7571;SDS011;3827;49.928;8.548;2023-03-14T14:10:16;0.90;;;0.70;;
7571;SDS011;3827;49.928;8.548;2023-03-14T14:12:45;1.10;;;0.60;;
7571;SDS011;3827;49.928;8.548;2023-03-14T14:15:17;1.17;;;0.60;;
7571;SDS011;3827;49.928;8.548;2023-03-14T14:17:47;0.60;;;0.60;;
7571;SDS011;3827;49.928;8.548;2023-03-14T14:20:22;1.00;;;0.60;;
7571;SDS011;3827;49.928;8.548;2023-03-14T14:22:56;1.05;;;0.80;;
7571;SDS011;3827;49.928;8.548;2023-03-14T14:25:24;1.27;;;0.40;;
7571;SDS011;3827;49.928;8.548;2023-03-14T14:27:51;0.50;;;0.50;;
7571;SDS011;3827;49.928;8.548;2023-03-14T14:30:25;0.60;;;0.60;;
7571;SDS011;3827;49.928;8.548;2023-03-14T14:33:10;0.57;;;0.57;;
7571;SDS011;3827;49.928;8.548;2023-03-14T14:35:48;0.60;;;0.57;;
7571;SDS011;3827;49.928;8.548;2023-03-14T14:38:18;1.13;;;0.90;;
7571;SDS011;3827;49.928;8.548;2023-03-14T14:40:48;1.30;;;0.50;;
7571;SDS011;3827;49.928;8.548;2023-03-14T14:43:17;0.68;;;0.68;;
7571;SDS011;3827;49.928;8.548;2023-03-14T14:45:47;0.45;;;0.40;;
7571;SDS011;3827;49.928;8.548;2023-03-14T14:48:18;0.50;;;0.50;;
7571;SDS011;3827;49.928;8.548;2023-03-14T14:50:55;0.80;;;0.70;;
7571;SDS011;3827;49.928;8.548;2023-03-14T14:53:26;0.70;;;0.70;;
7571;SDS011;3827;49.928;8.548;2023-03-14T14:55:56;0.70;;;0.70;;
7571;SDS011;3827;49.928;8.548;2023-03-14T14:58:25;1.10;;;0.90;;
7571;SDS011;3827;49.928;8.548;2023-03-14T15:00:54;1.80;;;1.00;;
7571;SDS011;3827;49.928;8.548;2023-03-14T15:03:26;1.92;;;0.88;;
7571;SDS011;3827;49.928;8.548;2023-03-14T15:05:56;1.00;;;0.90;;
7571;SDS011;3827;49.928;8.548;2023-03-14T15:08:24;1.52;;;0.95;;
7571;SDS011;3827;49.928;8.548;2023-03-14T15:10:52;1.30;;;0.80;;
7571;SDS011;3827;49.928;8.548;2023-03-14T15:13:19;2.30;;;0.85;;
7571;SDS011;3827;49.928;8.548;2023-03-14T15:15:46;0.77;;;0.77;;
7571;SDS011;3827;49.928;8.548;2023-03-14T15:18:14;0.77;;;0.70;;
7571;SDS011;3827;49.928;8.548;2023-03-14T15:20:43;0.68;;;0.60;;
7571;SDS011;3827;49.928;8.548;2023-03-14T15:23:12;0.63;;;0.47;;
7571;SDS011;3827;49.928;8.548;2023-03-14T15:25:40;0.57;;;0.50;;
7571;SDS011;3827;49.928;8.548;2023-03-14T15:28:11;0.70;;;0.70;;
7571;SDS011;3827;49.928;8.548;2023-03-14T15:30:41;0.80;;;0.40;;